Time;durP1;ratioP1;P1;durP2;ratioP2;P2;SDS_P1;SDS_P2;PMS_P1;PMS_P2;Temp;Humidity;BMP_temperature;BMP_pressure;BME280_temperature;BME280_humidity;BME280_pressure;Samples;Min_cycle;Max_cycle;Signal;HPM_P1;HPM_P2
2022/08/30 00:03:26;;;;;;;16.40;5.70;;;;;;;17.37;99.21;101845.72;6185384;23;20019;-68
2022/08/30 00:05:52;;;;;;;10.55;5.35;;;;;;;17.35;100.00;101843.22;6185477;23;20389;-68
2022/08/30 00:08:17;;;;;;;13.05;6.53;;;;;;;17.26;100.00;101832.94;6184768;23;20012;-68
2022/08/30 00:10:43;;;;;;;9.50;5.50;;;;;;;17.30;100.00;101834.09;6185143;23;20016;-70
2022/08/30 00:13:11;;;;;;;9.57;5.45;;;;;;;17.22;100.00;101839.97;6185192;23;20079;-70
2022/08/30 00:15:37;;;;;;;10.00;4.78;;;;;;;17.18;100.00;101835.00;6185263;23;20005;-67
2022/08/30 00:18:03;;;;;;;9.98;5.40;;;;;;;17.15;100.00;101838.22;6185330;23;20084;-70
2022/08/30 00:20:31;;;;;;;10.23;5.50;;;;;;;17.09;100.00;101838.34;6185089;23;20020;-70
2022/08/30 00:22:56;;;;;;;13.70;5.60;;;;;;;17.13;100.00;101836.81;6185163;23;20004;-68
2022/08/30 00:25:22;;;;;;;9.38;4.93;;;;;;;17.09;100.00;101841.09;6185437;23;20005;-69
2022/08/30 00:27:48;;;;;;;9.25;5.28;;;;;;;17.08;100.00;101834.81;6184270;23;20378;-67
2022/08/30 00:30:14;;;;;;;11.20;5.25;;;;;;;17.15;100.00;101840.97;6184962;23;20001;-68
2022/08/30 00:32:40;;;;;;;11.60;5.55;;;;;;;17.11;100.00;101839.78;6184738;23;20005;-70
2022/08/30 00:35:08;;;;;;;15.20;5.50;;;;;;;17.15;100.00;101840.97;6158943;23;20059;-69
2022/08/30 00:37:33;;;;;;;11.57;5.68;;;;;;;17.14;100.00;101833.00;6185052;23;20013;-69
2022/08/30 00:39:59;;;;;;;12.65;5.53;;;;;;;17.16;100.00;101841.78;6184951;23;20139;-68
2022/08/30 00:42:25;;;;;;;10.05;5.40;;;;;;;17.12;100.00;101840.59;6185086;23;20008;-68
2022/08/30 00:44:51;;;;;;;11.02;5.50;;;;;;;17.07;100.00;101841.34;6184707;23;20333;-68
2022/08/30 00:47:17;;;;;;;11.23;5.30;;;;;;;17.09;100.00;101847.41;6184877;23;20076;-69
2022/08/30 00:49:46;;;;;;;12.23;4.90;;;;;;;17.06;100.00;101847.91;6158171;23;20040;-70
2022/08/30 00:52:12;;;;;;;11.88;5.20;;;;;;;17.03;100.00;101842.94;6184677;23;20005;-68
2022/08/30 00:54:43;;;;;;;11.75;5.15;;;;;;;17.00;100.00;101833.28;6184932;23;20009;-69
2022/08/30 00:57:10;;;;;;;9.80;5.03;;;;;;;17.02;100.00;101846.72;6185199;23;20036;-69
2022/08/30 00:59:37;;;;;;;11.98;4.90;;;;;;;17.04;100.00;101850.03;6184132;23;20332;-69
2022/08/30 01:02:03;;;;;;;13.75;5.03;;;;;;;17.00;100.00;101840.69;6181731;23;20028;-70
2022/08/30 01:04:30;;;;;;;20.42;4.97;;;;;;;17.06;100.00;101845.16;6185005;23;20067;-69
2022/08/30 01:06:56;;;;;;;11.63;5.13;;;;;;;17.05;100.00;101843.50;6184488;23;20442;-71
2022/08/30 01:09:22;;;;;;;8.85;4.95;;;;;;;17.11;100.00;101839.78;6157926;23;20013;-70
2022/08/30 01:11:47;;;;;;;10.10;5.22;;;;;;;17.06;100.00;101842.44;6184663;23;20004;-69
2022/08/30 01:14:14;;;;;;;11.02;4.90;;;;;;;17.05;100.00;101845.41;6185061;23;20370;-68
2022/08/30 01:16:42;;;;;;;6.88;4.47;;;;;;;17.08;100.00;101861.34;6157506;23;20020;-69
2022/08/30 01:19:52;;;;;;;10.35;5.13;;;;;;;17.15;100.00;101860.09;6158175;23;20016;-68
2022/08/30 01:22:52;;;;;;;8.05;4.60;;;;;;;17.10;100.00;101857.25;6184937;23;20005;-69
2022/08/30 01:25:22;;;;;;;9.18;4.35;;;;;;;17.03;100.00;101856.59;6183768;23;20431;-70
2022/08/30 01:27:53;;;;;;;6.60;4.22;;;;;;;17.02;100.00;101846.72;6184357;23;20021;-69
2022/08/30 01:30:19;;;;;;;9.00;4.70;;;;;;;17.00;100.00;101852.44;6184230;23;20001;-68
2022/08/30 01:32:46;;;;;;;10.20;4.80;;;;;;;16.92;100.00;101844.59;6184619;23;20015;-69
2022/08/30 01:35:14;;;;;;;11.38;5.35;;;;;;;16.90;100.00;101848.69;6184424;23;20005;-69
2022/08/30 01:37:39;;;;;;;8.20;4.82;;;;;;;16.93;100.00;101851.75;6184601;23;20001;-70
2022/08/30 01:40:09;;;;;;;8.98;5.00;;;;;;;16.86;100.00;101851.00;6184564;23;20052;-68
2022/08/30 01:42:35;;;;;;;8.35;4.90;;;;;;;16.85;100.00;101843.91;6182404;23;20334;-67
2022/08/30 01:45:00;;;;;;;8.43;4.90;;;;;;;16.90;100.00;101854.97;6184021;23;20001;-69
2022/08/30 01:47:26;;;;;;;9.88;4.90;;;;;;;16.92;100.00;101860.19;6184811;23;20005;-68
2022/08/30 01:49:52;;;;;;;8.50;4.68;;;;;;;16.86;100.00;101852.94;6183609;23;20013;-69
2022/08/30 01:52:17;;;;;;;8.32;5.00;;;;;;;16.81;100.00;101862.69;6184743;23;20016;-69
2022/08/30 01:54:44;;;;;;;10.65;4.63;;;;;;;16.84;100.00;101854.00;6183643;23;20005;-69
2022/08/30 01:57:13;;;;;;;8.75;4.97;;;;;;;16.81;100.00;101853.66;6183151;23;20052;-68
2022/08/30 01:59:42;;;;;;;7.47;4.63;;;;;;;16.78;100.00;101844.03;6184454;23;20005;-70
2022/08/30 02:02:09;;;;;;;8.27;4.78;;;;;;;16.77;100.00;101847.00;6181929;23;20597;-68
2022/08/30 02:04:35;;;;;;;10.30;4.93;;;;;;;16.75;100.00;101841.78;6183859;23;20008;-70
2022/08/30 02:07:02;;;;;;;10.38;5.03;;;;;;;16.72;100.00;101842.28;6184669;23;20415;-69
2022/08/30 02:09:28;;;;;;;10.45;4.63;;;;;;;16.74;100.00;101848.34;6157870;23;20020;-70
2022/08/30 02:11:53;;;;;;;9.63;4.82;;;;;;;16.70;100.00;101841.69;6183949;23;20001;-67
2022/08/30 02:14:19;;;;;;;10.80;4.90;;;;;;;16.73;100.00;101838.47;6184762;23;20037;-69
2022/08/30 02:16:45;;;;;;;7.88;4.90;;;;;;;16.67;100.00;101839.44;6182439;23;20005;-70
2022/08/30 02:19:10;;;;;;;8.88;5.07;;;;;;;16.63;100.00;101849.19;6184167;23;20048;-68
2022/08/30 02:21:35;;;;;;;9.30;4.50;;;;;;;16.66;100.00;101843.25;6184308;23;20419;-69
2022/08/30 02:24:01;;;;;;;10.05;4.90;;;;;;;16.65;100.00;101831.50;6158030;23;20005;-71
2022/08/30 02:26:26;;;;;;;8.00;5.13;;;;;;;16.66;100.00;101843.25;6184231;23;20005;-69
2022/08/30 02:28:52;;;;;;;9.00;5.25;;;;;;;16.60;100.00;101842.28;6184407;23;20005;-68
2022/08/30 02:31:19;;;;;;;9.07;4.78;;;;;;;16.59;100.00;101837.06;6157977;23;20016;-68
2022/08/30 02:33:45;;;;;;;11.00;5.03;;;;;;;16.57;100.00;101839.22;6183888;23;20009;-70
2022/08/30 02:36:11;;;;;;;10.25;5.53;;;;;;;16.50;100.00;101835.78;6184198;23;20005;-70
2022/08/30 02:38:36;;;;;;;10.52;5.13;;;;;;;16.48;100.00;101834.13;6184617;23;20005;-67
2022/08/30 02:41:02;;;;;;;12.00;4.93;;;;;;;16.46;100.00;101832.72;6183546;23;20041;-68
2022/08/30 02:43:28;;;;;;;9.18;5.13;;;;;;;16.45;100.00;101836.50;6184236;23;20013;-68
2022/08/30 02:45:53;;;;;;;8.90;4.72;;;;;;;16.50;100.00;101822.13;6183849;23;20008;-69
2022/08/30 02:48:19;;;;;;;8.68;4.93;;;;;;;16.46;100.00;101833.53;6184108;23;20005;-71
2022/08/30 02:50:47;;;;;;;8.43;5.63;;;;;;;16.44;100.00;101823.91;6184113;23;20016;-70
2022/08/30 02:53:13;;;;;;;11.75;5.25;;;;;;;16.44;100.00;101821.19;6186357;23;20008;-70
2022/08/30 02:55:38;;;;;;;9.85;4.82;;;;;;;16.40;100.00;101823.56;6185254;23;20039;-68
2022/08/30 02:58:05;;;;;;;6.00;5.00;;;;;;;16.37;100.00;101829.53;6186039;23;20008;-71
2022/08/30 03:00:30;;;;;;;9.27;5.10;;;;;;;16.34;100.00;101827.28;6183137;23;20005;-69
2022/08/30 03:02:56;;;;;;;10.27;5.55;;;;;;;16.32;100.00;101814.91;6185440;23;20339;-70
2022/08/30 03:05:21;;;;;;;9.27;5.22;;;;;;;16.32;100.00;101820.38;6186245;23;20326;-70
2022/08/30 03:07:46;;;;;;;8.48;5.35;;;;;;;16.31;100.00;101814.09;6159017;23;20012;-70
2022/08/30 03:10:13;;;;;;;9.65;5.40;;;;;;;16.27;100.00;101815.63;6184115;23;20021;-69
2022/08/30 03:12:40;;;;;;;8.25;5.45;;;;;;;16.23;100.00;101814.44;6185819;23;20016;-68
2022/08/30 03:15:07;;;;;;;7.60;5.45;;;;;;;16.24;100.00;101816.13;6186224;23;20063;-69
2022/08/30 03:17:35;;;;;;;8.30;5.40;;;;;;;16.23;100.00;101818.03;6186117;23;20009;-70
2022/08/30 03:20:01;;;;;;;10.48;5.68;;;;;;;16.21;100.00;101816.59;6185433;23;20105;-68
2022/08/30 03:22:28;;;;;;;9.55;5.95;;;;;;;16.24;100.00;101813.38;6185775;23;20005;-71
2022/08/30 03:24:58;;;;;;;11.00;5.70;;;;;;;16.28;100.00;101820.84;6185190;23;20001;-69
2022/08/30 03:27:23;;;;;;;8.07;5.30;;;;;;;16.29;100.00;101813.50;6186002;23;20009;-69
2022/08/30 03:29:48;;;;;;;7.18;5.10;;;;;;;16.32;100.00;101813.03;6185233;23;20000;-68
2022/08/30 03:32:14;;;;;;;12.20;5.60;;;;;;;16.33;100.00;101820.13;6185505;23;20012;-69
2022/08/30 03:34:39;;;;;;;10.18;5.38;;;;;;;16.32;100.00;101817.66;6185976;23;20031;-70
2022/08/30 03:37:04;;;;;;;8.63;5.15;;;;;;;16.29;100.00;101813.50;6159411;23;20012;-69
2022/08/30 03:39:30;;;;;;;12.70;5.90;;;;;;;16.25;100.00;101809.59;6184209;23;20374;-69
2022/08/30 03:41:56;;;;;;;8.43;5.30;;;;;;;16.27;100.00;101812.91;6185246;23;20041;-70
2022/08/30 03:44:22;;;;;;;7.65;5.32;;;;;;;16.15;100.00;101803.91;6185508;23;20009;-69
2022/08/30 03:46:47;;;;;;;10.00;6.07;;;;;;;16.19;100.00;101813.28;6185744;23;20634;-68
2022/08/30 03:49:13;;;;;;;8.10;5.80;;;;;;;16.22;100.00;101816.34;6159033;23;20055;-70
2022/08/30 03:51:38;;;;;;;8.05;5.78;;;;;;;16.19;100.00;101818.75;6185676;23;20029;-70
2022/08/30 03:54:04;;;;;;;8.50;5.45;;;;;;;16.23;100.00;101817.19;6185490;23;20005;-69
2022/08/30 03:56:29;;;;;;;12.50;6.50;;;;;;;16.19;100.00;101816.00;6159364;23;20048;-70
2022/08/30 03:58:55;;;;;;;11.52;6.70;;;;;;;16.27;100.00;101823.81;6158017;23;20005;-68
2022/08/30 04:01:20;;;;;;;9.27;6.10;;;;;;;16.25;100.00;101815.06;6182463;23;20012;-70
2022/08/30 04:03:46;;;;;;;8.30;6.47;;;;;;;16.23;100.00;101828.09;6184710;23;20016;-70
2022/08/30 04:06:11;;;;;;;10.82;6.22;;;;;;;16.19;100.00;101816.84;6185634;23;20005;-68
2022/08/30 04:08:37;;;;;;;9.10;6.07;;;;;;;16.15;100.00;101814.81;6184601;23;20001;-69
2022/08/30 04:11:04;;;;;;;7.10;6.28;;;;;;;16.13;100.00;101815.06;6185161;23;20422;-69
2022/08/30 04:13:29;;;;;;;8.88;6.18;;;;;;;16.11;100.00;101815.31;6185174;23;20009;-71
2022/08/30 04:15:55;;;;;;;8.00;6.30;;;;;;;16.06;100.00;101815.19;6158331;23;20084;-68
2022/08/30 04:18:21;;;;;;;7.97;5.95;;;;;;;16.10;100.00;101816.38;6185224;23;20005;-68
2022/08/30 04:20:46;;;;;;;7.70;6.22;;;;;;;16.01;100.00;101812.34;6184480;23;20005;-68
2022/08/30 04:23:13;;;;;;;8.82;6.28;;;;;;;15.99;100.00;101819.94;6185452;23;20008;-69
2022/08/30 04:25:40;;;;;;;8.52;6.45;;;;;;;15.95;100.00;101822.28;6158966;23;20040;-70
2022/08/30 04:28:06;;;;;;;8.35;6.38;;;;;;;15.97;100.00;101824.78;6184866;23;20451;-69
2022/08/30 04:30:32;;;;;;;10.45;7.20;;;;;;;15.95;100.00;101827.75;6184434;23;20005;-70
2022/08/30 04:32:57;;;;;;;10.50;7.40;;;;;;;15.95;100.00;101829.66;6185153;23;20057;-69
2022/08/30 04:35:23;;;;;;;10.05;6.90;;;;;;;15.92;100.00;101821.94;6185057;23;20071;-68
2022/08/30 04:37:49;;;;;;;12.13;6.88;;;;;;;15.95;100.00;101829.66;6185080;23;20028;-69
2022/08/30 04:40:15;;;;;;;9.93;7.00;;;;;;;15.90;100.00;101830.38;6184889;23;20004;-70
2022/08/30 04:42:42;;;;;;;9.57;7.40;;;;;;;15.93;100.00;101831.81;6185284;23;20480;-67
2022/08/30 04:45:13;;;;;;;12.48;7.00;;;;;;;16.00;100.00;101840.69;6184200;23;20005;-71
2022/08/30 04:47:39;;;;;;;13.05;7.50;;;;;;;16.03;100.00;101837.50;6184948;23;20001;-71
2022/08/30 04:50:07;;;;;;;10.38;7.72;;;;;;;16.01;100.00;101836.09;6184063;23;20005;-67
2022/08/30 04:52:32;;;;;;;10.52;8.00;;;;;;;16.04;100.00;101841.88;6184840;23;20391;-68
2022/08/30 04:54:58;;;;;;;12.05;7.75;;;;;;;16.08;100.00;101837.63;6184584;23;20025;-69
2022/08/30 04:57:25;;;;;;;10.88;7.68;;;;;;;16.08;100.00;101845.00;6158619;23;20012;-68
2022/08/30 04:59:51;;;;;;;9.38;7.40;;;;;;;16.05;100.00;101846.28;6183707;23;20012;-70
2022/08/30 05:02:17;;;;;;;11.45;8.05;;;;;;;16.00;100.00;101840.69;6182456;23;20075;-68
2022/08/30 05:05:38;;;;;;;12.27;7.65;;;;;;;15.99;100.00;101849.97;6185013;23;20028;-69
2022/08/30 05:07:29;;;;;;;10.48;7.80;;;;;;;15.91;100.00;101842.13;6184508;23;20202;-69
2022/08/30 05:09:54;;;;;;;10.95;7.78;;;;;;;15.89;100.00;101836.06;6183801;23;20509;-67
2022/08/30 05:12:20;;;;;;;16.25;8.93;;;;;;;15.82;100.00;101838.94;6158407;23;20009;-69
2022/08/30 05:14:45;;;;;;;14.55;7.93;;;;;;;15.81;100.00;101847.34;6184137;23;20120;-68
2022/08/30 05:17:11;;;;;;;10.90;8.48;;;;;;;15.84;100.00;101852.34;6184376;23;20001;-70
2022/08/30 05:19:36;;;;;;;12.50;8.05;;;;;;;15.84;100.00;101846.88;6158215;23;20326;-69
2022/08/30 05:22:02;;;;;;;12.00;7.80;;;;;;;15.84;100.00;101852.34;6158249;23;20012;-69
2022/08/30 05:24:27;;;;;;;10.82;7.97;;;;;;;15.90;100.00;101849.50;6184618;23;20005;-70
2022/08/30 05:26:52;;;;;;;9.98;8.40;;;;;;;15.89;100.00;101850.53;6184289;23;20033;-67
2022/08/30 05:29:18;;;;;;;13.95;8.43;;;;;;;15.94;100.00;101860.75;6184071;23;20374;-67
2022/08/30 05:31:43;;;;;;;12.98;8.23;;;;;;;15.94;100.00;101864.34;6184886;23;20001;-69
2022/08/30 05:34:10;;;;;;;10.63;8.65;;;;;;;15.95;100.00;101865.16;6184178;23;20498;-67
2022/08/30 05:36:37;;;;;;;12.63;8.40;;;;;;;15.94;100.00;101869.78;6184862;23;20032;-68
2022/08/30 05:39:05;;;;;;;10.88;8.25;;;;;;;15.97;100.00;101863.00;6184138;23;20009;-68
2022/08/30 05:41:30;;;;;;;12.60;8.43;;;;;;;15.97;100.00;101868.47;6184911;23;20009;-68
2022/08/30 05:43:58;;;;;;;11.65;8.52;;;;;;;16.02;100.00;101873.22;6183694;23;20059;-67
2022/08/30 05:46:24;;;;;;;13.02;8.75;;;;;;;16.03;100.00;101867.53;6184456;23;20370;-68
2022/08/30 05:48:50;;;;;;;10.43;8.57;;;;;;;16.03;100.00;101862.06;6184265;23;20427;-69
2022/08/30 05:51:21;;;;;;;10.52;9.20;;;;;;;16.02;100.00;101865.88;6184582;23;20070;-68
2022/08/30 05:53:48;;;;;;;9.82;8.85;;;;;;;16.01;100.00;101863.38;6184814;23;20001;-67
2022/08/30 05:56:16;;;;;;;17.02;9.45;;;;;;;15.91;100.00;101859.34;6184529;23;20009;-71
2022/08/30 05:58:42;;;;;;;11.30;9.45;;;;;;;15.91;100.00;101866.69;6184341;23;20009;-69
2022/08/30 06:01:18;;;;;;;15.50;9.32;;;;;;;15.93;100.00;101862.66;6180872;23;20221;-67
2022/08/30 06:03:43;;;;;;;11.55;9.27;;;;;;;15.94;100.00;101868.94;6184826;23;20012;-67
2022/08/30 06:06:08;;;;;;;14.57;9.60;;;;;;;15.97;100.00;101863.00;6184457;23;20002;-69
2022/08/30 06:08:34;;;;;;;12.00;9.80;;;;;;;15.98;100.00;101869.31;6184497;23;20056;-69
2022/08/30 06:10:59;;;;;;;11.40;9.68;;;;;;;16.06;100.00;101867.06;6157436;23;20001;-67
2022/08/30 06:13:24;;;;;;;13.57;9.68;;;;;;;16.11;100.00;101872.66;6184263;23;20526;-67
2022/08/30 06:15:51;;;;;;;15.55;10.07;;;;;;;16.11;100.00;101874.56;6183926;23;20011;-69
2022/08/30 06:18:17;;;;;;;10.85;9.75;;;;;;;16.12;100.00;101871.59;6184734;23;20064;-68
2022/08/30 06:20:46;;;;;;;11.68;9.70;;;;;;;16.19;100.00;101876.09;6184116;23;20055;-66
2022/08/30 06:23:11;;;;;;;15.82;9.98;;;;;;;16.20;100.00;101867.66;6184407;23;20451;-68
2022/08/30 06:25:37;;;;;;;11.25;9.45;;;;;;;16.16;100.00;101861.00;6184838;23;20048;-69
2022/08/30 06:28:05;;;;;;;13.10;10.73;;;;;;;16.19;100.00;101868.72;6186444;23;20415;-69
2022/08/30 06:30:31;;;;;;;20.00;11.48;;;;;;;16.20;100.00;101866.81;6185649;23;20005;-67
2022/08/30 06:32:57;;;;;;;10.65;9.57;;;;;;;16.19;100.00;101862.44;6159882;23;20301;-68
2022/08/30 06:35:22;;;;;;;13.57;10.52;;;;;;;16.19;100.00;101866.00;6186500;23;20007;-67
2022/08/30 06:37:47;;;;;;;15.10;10.63;;;;;;;16.26;100.00;101865.84;6186226;23;20382;-69
2022/08/30 06:40:13;;;;;;;14.18;10.88;;;;;;;16.27;100.00;101859.34;6185485;23;20076;-68
2022/08/30 06:42:38;;;;;;;13.65;10.90;;;;;;;16.31;100.00;101863.25;6186464;23;20001;-69
2022/08/30 06:45:04;;;;;;;14.07;11.02;;;;;;;16.34;100.00;101864.69;6184720;23;20307;-69
2022/08/30 06:47:29;;;;;;;14.10;10.98;;;;;;;16.39;100.00;101868.34;6185941;23;20001;-69
2022/08/30 06:49:56;;;;;;;14.95;10.88;;;;;;;16.48;100.00;101863.34;6184939;23;20005;-68
2022/08/30 06:52:21;;;;;;;16.50;10.88;;;;;;;16.49;100.00;101865.03;6185799;23;20012;-68
2022/08/30 06:54:46;;;;;;;15.05;10.57;;;;;;;16.51;100.00;101860.13;6186392;23;20005;-68
2022/08/30 06:57:12;;;;;;;14.45;11.25;;;;;;;16.55;100.00;101857.78;6186075;23;20709;-68
2022/08/30 06:59:38;;;;;;;12.35;10.52;;;;;;;16.60;100.00;101857.88;6185346;23;20028;-68
2022/08/30 07:02:04;;;;;;;13.68;10.73;;;;;;;16.70;100.00;101868.16;6155147;23;20009;-71
2022/08/30 07:04:30;;;;;;;12.40;10.35;;;;;;;16.74;100.00;101870.22;6186381;23;20001;-68
2022/08/30 07:06:55;;;;;;;12.50;11.20;;;;;;;16.80;100.00;101871.13;6185565;23;20020;-67
2022/08/30 07:09:20;;;;;;;12.55;10.13;;;;;;;16.87;100.00;101868.31;6185309;23;20017;-69
2022/08/30 07:11:46;;;;;;;13.32;10.30;;;;;;;16.90;100.00;101870.56;6185985;23;20016;-68
2022/08/30 07:14:11;;;;;;;10.90;9.77;;;;;;;16.97;100.00;101868.50;6185709;23;20009;-68
2022/08/30 07:16:37;;;;;;;12.65;10.45;;;;;;;17.08;100.00;101867.63;6185416;23;20032;-69
2022/08/30 07:19:04;;;;;;;14.38;10.15;;;;;;;17.14;100.00;101872.13;6185792;23;20001;-67
2022/08/30 07:21:42;;;;;;;10.75;9.52;;;;;;;17.22;100.00;101873.63;6158716;23;20020;-67
2022/08/30 07:24:08;;;;;;;12.20;9.60;;;;;;;17.28;100.00;101882.75;6184896;23;20059;-67
2022/08/30 07:26:48;;;;;;;14.95;9.13;;;;;;;17.33;100.00;101889.16;6185641;23;20339;-69
2022/08/30 07:29:14;;;;;;;12.65;8.88;;;;;;;17.33;100.00;101886.44;6185545;23;20007;-68
2022/08/30 07:31:40;;;;;;;12.45;9.02;;;;;;;17.40;100.00;101885.44;6185436;23;20005;-67
2022/08/30 07:34:06;;;;;;;11.70;8.73;;;;;;;17.41;100.00;101882.47;6185238;23;20052;-68
2022/08/30 07:36:33;;;;;;;10.15;9.05;;;;;;;17.37;100.00;101881.28;6185947;23;20009;-68
2022/08/30 07:38:58;;;;;;;11.80;8.60;;;;;;;17.42;100.00;101886.03;6184673;23;20033;-71
2022/08/30 07:41:31;;;;;;;13.02;8.93;;;;;;;17.46;100.00;101889.94;6185024;23;20005;-68
2022/08/30 07:43:56;;;;;;;10.07;8.10;;;;;;;17.45;100.00;101871.84;6185322;23;20001;-69
2022/08/30 07:46:23;;;;;;;10.07;8.57;;;;;;;17.52;100.00;101883.47;6185627;23;20011;-69
2022/08/30 07:48:49;;;;;;;10.15;8.07;;;;;;;17.62;100.00;101883.66;6185406;23;20011;-69
2022/08/30 07:51:18;;;;;;;10.20;7.97;;;;;;;17.71;100.00;101892.31;6185364;23;20033;-70
2022/08/30 07:53:43;;;;;;;11.55;8.32;;;;;;;17.76;100.00;101891.56;6185251;23;20001;-68
2022/08/30 07:56:09;;;;;;;11.05;7.95;;;;;;;17.80;100.00;101879.84;6185522;23;20494;-69
2022/08/30 07:58:36;;;;;;;11.63;8.70;;;;;;;17.85;100.00;101888.16;6185316;23;20005;-70
2022/08/30 08:01:03;;;;;;;16.15;8.00;;;;;;;17.92;100.00;101890.75;6181888;23;20005;-69
2022/08/30 08:03:29;;;;;;;12.63;7.88;;;;;;;17.99;100.00;101887.84;6158456;23;20012;-69
2022/08/30 08:05:55;;;;;;;8.82;7.72;;;;;;;18.05;99.22;101886.84;6185224;23;20005;-69
2022/08/30 08:08:21;;;;;;;11.55;7.63;;;;;;;18.13;97.60;101889.19;6157515;23;20083;-69
2022/08/30 08:10:46;;;;;;;9.13;7.85;;;;;;;18.16;96.31;101893.31;6184612;23;20449;-70
2022/08/30 08:13:18;;;;;;;8.60;7.78;;;;;;;18.21;97.17;101891.47;6184949;23;20005;-70
2022/08/30 08:16:02;;;;;;;9.95;7.53;;;;;;;18.26;94.72;101903.59;6185686;23;20080;-69
2022/08/30 08:18:27;;;;;;;9.90;7.65;;;;;;;18.25;93.01;101900.00;6184661;23;20054;-70
2022/08/30 08:20:52;;;;;;;13.80;7.50;;;;;;;18.31;94.42;101895.44;6184806;23;20419;-70
2022/08/30 08:23:18;;;;;;;8.02;6.85;;;;;;;18.37;93.46;101895.28;6185074;23;20438;-69
2022/08/30 08:25:43;;;;;;;10.13;7.03;;;;;;;18.41;91.75;101898.34;6158643;23;20008;-70
2022/08/30 08:28:08;;;;;;;10.02;7.65;;;;;;;18.43;90.08;101898.91;6184489;23;20541;-70
2022/08/30 08:30:36;;;;;;;12.60;7.10;;;;;;;18.43;90.57;101898.91;6185085;23;20002;-68
2022/08/30 08:33:02;;;;;;;12.55;7.10;;;;;;;18.45;88.93;101899.50;6185137;23;20005;-69
2022/08/30 08:35:28;;;;;;;10.90;6.95;;;;;;;18.48;87.59;101906.38;6185019;23;20088;-68
2022/08/30 08:37:53;;;;;;;10.40;6.53;;;;;;;18.49;87.18;101903.38;6185033;23;20364;-69
2022/08/30 08:40:19;;;;;;;9.02;6.88;;;;;;;18.55;87.23;101916.06;6184512;23;20013;-69
2022/08/30 08:42:59;;;;;;;11.50;6.53;;;;;;;18.65;87.06;101909.09;6185302;23;20013;-70
2022/08/30 08:46:04;;;;;;;10.43;6.50;;;;;;;18.72;87.39;101901.50;6184267;23;20381;-70
2022/08/30 08:48:48;;;;;;;12.40;6.03;;;;;;;18.83;86.29;101907.97;6184616;23;20011;-69
2022/08/30 08:54:09;;;;;;;6.90;5.22;;;;;;;18.95;81.86;101922.41;6184086;23;20100;-69
2022/08/30 08:56:36;;;;;;;7.25;5.55;;;;;;;19.01;80.35;101909.56;6185208;23;20012;-69
2022/08/30 08:59:05;;;;;;;9.75;5.32;;;;;;;19.09;79.68;101906.38;6184211;23;20041;-69
2022/08/30 09:01:30;;;;;;;7.60;4.80;;;;;;;19.19;79.65;101911.13;6181858;23;20055;-69
2022/08/30 09:03:58;;;;;;;6.40;4.93;;;;;;;19.29;78.87;101903.03;6185137;23;20005;-69
2022/08/30 09:07:02;;;;;;;10.75;5.30;;;;;;;19.38;79.04;101908.88;6184800;23;20351;-69
2022/08/30 09:09:37;;;;;;;6.80;4.72;;;;;;;19.45;78.05;101899.34;6184188;23;20017;-69
2022/08/30 09:12:05;;;;;;;7.88;4.80;;;;;;;19.57;76.93;101907.44;6184283;23;20441;-70
2022/08/30 09:14:45;;;;;;;8.18;4.70;;;;;;;19.63;75.28;101911.88;6184847;23;20419;-69
2022/08/30 09:17:15;;;;;;;5.97;5.18;;;;;;;19.69;74.76;101899.03;6183945;23;20366;-70
2022/08/30 09:19:52;;;;;;;6.10;4.05;;;;;;;19.74;75.00;101899.06;6184572;23;20005;-70
2022/08/30 09:22:25;;;;;;;6.95;4.30;;;;;;;19.86;74.17;101904.41;6184490;23;20316;-69
2022/08/30 09:25:10;;;;;;;12.52;4.40;;;;;;;19.96;74.36;101899.00;6184905;23;20008;-69
2022/08/30 09:27:41;;;;;;;7.72;4.20;;;;;;;20.09;73.51;101897.72;6173579;23;20004;-69
2022/08/30 09:30:22;;;;;;;5.75;3.70;;;;;;;20.17;72.53;101899.16;6182145;23;20327;-69
2022/08/30 09:32:55;;;;;;;11.32;4.07;;;;;;;20.27;70.89;101909.41;6184538;23;20009;-70
2022/08/30 09:35:36;;;;;;;6.97;3.22;;;;;;;20.35;69.72;101901.50;6184054;23;20005;-69
2022/08/30 09:38:07;;;;;;;6.03;2.90;;;;;;;20.43;68.79;101902.91;6184659;23;20493;-68
2022/08/30 09:40:48;;;;;;;5.30;3.00;;;;;;;20.47;68.55;101897.69;6184415;23;20008;-69
2022/08/30 09:43:16;;;;;;;3.65;2.85;;;;;;;20.58;67.79;101904.91;6184549;23;20001;-69
2022/08/30 09:45:48;;;;;;;5.80;3.10;;;;;;;20.59;68.06;101900.22;6157465;23;20362;-70
2022/08/30 09:48:27;;;;;;;8.63;3.28;;;;;;;20.61;68.65;101898.88;6183304;23;20419;-69
2022/08/30 09:51:13;;;;;;;10.40;2.95;;;;;;;20.67;66.68;101897.03;6157833;23;20159;-69
2022/08/30 09:54:15;;;;;;;5.18;3.28;;;;;;;20.77;67.95;101901.72;6184848;23;20038;-68
2022/08/30 09:57:31;;;;;;;6.88;2.72;;;;;;;20.84;66.14;101907.81;6184822;23;19997;-69
2022/08/30 10:00:14;;;;;;;8.75;2.30;;;;;;;20.85;66.00;101902.03;6151037;23;20049;-70
2022/08/30 10:02:51;;;;;;;9.48;3.00;;;;;;;20.91;65.32;101902.06;6181557;23;20383;-70
2022/08/30 10:05:37;;;;;;;5.60;2.53;;;;;;;21.00;65.22;101897.69;6187289;23;20001;-70
2022/08/30 10:08:13;;;;;;;5.30;2.40;;;;;;;21.12;64.79;101906.56;6161382;23;20017;-70
2022/08/30 10:10:48;;;;;;;3.08;2.33;;;;;;;21.12;63.38;101913.97;6187896;23;20048;-69
2022/08/30 10:13:55;;;;;;;6.97;2.70;;;;;;;21.23;64.45;101904.66;6187748;23;20001;-70
2022/08/30 10:16:39;;;;;;;5.97;2.63;;;;;;;21.24;62.95;101903.53;6157589;23;20012;-68
2022/08/30 10:19:24;;;;;;;5.75;2.40;;;;;;;21.30;62.46;101904.38;6185834;23;20037;-69
2022/08/30 10:22:12;;;;;;;5.32;2.38;;;;;;;21.35;63.02;101904.41;6187094;23;20035;-69
2022/08/30 10:24:43;;;;;;;12.85;2.90;;;;;;;21.35;61.12;101896.97;6187582;23;20347;-68
2022/08/30 10:27:15;;;;;;;;;;;;;;;21.39;62.16;101902.75;6161419;23;20067;-68
2022/08/30 10:29:48;;;;;;;7.82;2.60;;;;;;;21.42;61.86;101891.19;6187765;23;19958;-69
2022/08/30 10:32:13;;;;;;;9.57;2.70;;;;;;;21.43;60.42;101882.66;6187150;23;20005;-69
2022/08/30 10:34:53;;;;;;;5.57;2.55;;;;;;;21.53;60.85;101889.28;6160076;23;20067;-70
2022/08/30 10:37:22;;;;;;;6.75;2.40;;;;;;;21.68;60.49;101886.56;6186053;23;20012;-69
2022/08/30 10:39:57;;;;;;;5.68;2.60;;;;;;;21.72;59.74;101895.91;6187296;23;20005;-69
2022/08/30 10:42:30;;;;;;;7.57;2.10;;;;;;;21.81;59.79;101893.44;6186505;23;20013;-69
2022/08/30 10:45:12;;;;;;;4.68;2.20;;;;;;;21.85;59.95;101896.50;6187368;23;20005;-70
2022/08/30 10:47:59;;;;;;;4.47;2.33;;;;;;;21.94;59.51;101897.59;6187939;23;20001;-69
2022/08/30 10:50:29;;;;;;;6.93;2.35;;;;;;;21.98;58.70;101898.66;6187039;23;20001;-69
2022/08/30 10:53:09;;;;;;;3.58;2.38;;;;;;;22.02;58.18;101894.25;6160589;23;20324;-71
2022/08/30 10:55:44;;;;;;;5.43;2.23;;;;;;;22.18;58.85;101880.44;6159677;23;20441;-70
2022/08/30 10:58:11;;;;;;;7.50;2.90;;;;;;;22.19;57.59;101884.88;6185882;23;20099;-68
2022/08/30 11:00:43;;;;;;;5.50;2.40;;;;;;;22.27;56.97;101884.31;6184530;23;20012;-70
2022/08/30 11:03:26;;;;;;;;;;;;;;;22.30;58.74;101883.75;6187627;23;20009;-71
2022/08/30 11:06:08;;;;;;;5.40;2.15;;;;;;;22.33;57.16;101888.75;6187600;23;19975;-72
2022/08/30 11:09:10;;;;;;;6.07;2.20;;;;;;;22.34;57.25;101890.38;6187224;23;20005;-68
2022/08/30 11:11:57;;;;;;;10.77;2.30;;;;;;;22.36;56.33;101888.19;6186940;23;20008;-68
2022/08/30 11:14:23;;;;;;;10.75;2.40;;;;;;;22.37;56.44;101875.22;6184289;23;20011;-68
2022/08/30 11:16:52;;;;;;;9.05;2.25;;;;;;;22.41;55.45;101876.31;6184951;23;20091;-68
2022/08/30 11:19:35;;;;;;;4.55;1.95;;;;;;;22.51;56.30;101883.72;6185873;23;20076;-70
2022/08/30 11:22:14;;;;;;;4.65;2.00;;;;;;;22.59;55.72;101886.72;6186152;23;20005;-69
2022/08/30 11:25:13;;;;;;;5.05;2.35;;;;;;;22.60;56.85;101879.25;6185397;23;20009;-69
2022/08/30 11:27:57;;;;;;;5.55;2.33;;;;;;;22.64;55.62;101877.59;6185116;23;20005;-68
2022/08/30 11:30:22;;;;;;;6.15;2.40;;;;;;;22.62;54.30;101885.34;6185660;23;20084;-69